Time;durP1;ratioP1;P1;durP2;ratioP2;P2;SDS_P1;SDS_P2;PMS_P1;PMS_P2;Temp;Humidity;BMP_temperature;BMP_pressure;BME280_temperature;BME280_humidity;BME280_pressure;Samples;Min_cycle;Max_cycle;Signal;HPM_P1;HPM_P2
2022/12/22 03:27:49;;;;;;;52.73;23.15;;;;;;;3.53;100.00;98518.61;2161905;82;21016;-58
2022/12/22 03:30:51;;;;;;;55.75;23.07;;;;;;;3.56;100.00;98523.67;2172298;81;21040;-58
2022/12/22 03:33:52;;;;;;;53.55;22.98;;;;;;;3.52;100.00;98520.80;2172393;81;21049;-58
2022/12/22 03:36:54;;;;;;;52.93;22.27;;;;;;;3.57;100.00;98522.78;2172053;81;21064;-58
2022/12/22 03:39:55;;;;;;;50.55;22.62;;;;;;;3.55;100.00;98516.36;2171838;81;21076;-58
2022/12/22 03:52:06;;;;;;;53.00;22.50;;;;;;;3.31;100.00;98514.21;2168991;81;21033;-58
2022/12/22 03:55:08;;;;;;;54.27;22.02;;;;;;;3.23;100.00;98511.05;2189066;81;21478;-58
2022/12/22 03:58:09;;;;;;;54.10;22.15;;;;;;;3.20;100.00;98504.22;2188839;81;20968;-58
2022/12/22 04:01:11;;;;;;;55.40;21.60;;;;;;;3.10;100.00;98492.06;2188702;81;21024;-58
2022/12/22 04:04:12;;;;;;;50.40;20.85;;;;;;;3.15;100.00;98489.30;2188643;81;21076;-58
2022/12/22 04:07:14;;;;;;;51.37;21.23;;;;;;;3.22;100.00;98498.55;2188693;81;21032;-58
2022/12/22 04:13:18;;;;;;;51.20;20.97;;;;;;;3.27;100.00;98482.35;2172441;81;20981;-58
2022/12/22 04:16:20;;;;;;;50.00;21.42;;;;;;;3.37;100.00;98484.63;2188884;81;21031;-58
2022/12/22 04:19:23;;;;;;;52.20;21.30;;;;;;;3.40;100.00;98481.91;2189118;81;21444;-58
2022/12/22 04:22:24;;;;;;;58.92;24.47;;;;;;;3.42;100.00;98475.77;2172005;81;21562;-59
2022/12/22 04:25:27;;;;;;;51.40;22.13;;;;;;;3.41;100.00;98478.42;2188769;81;20945;-58
2022/12/22 04:28:28;;;;;;;44.45;20.17;;;;;;;3.42;100.00;98471.88;2188921;81;21482;-59
2022/12/22 04:31:29;;;;;;;52.80;22.22;;;;;;;3.38;100.00;98469.01;2188672;81;20969;-58
2022/12/22 04:34:31;;;;;;;51.85;22.30;;;;;;;3.29;100.00;98461.13;2188876;81;21498;-58
2022/12/22 04:37:33;;;;;;;53.63;22.13;;;;;;;3.29;100.00;98468.06;2188563;81;21048;-58
2022/12/22 04:40:34;;;;;;;60.17;26.42;;;;;;;3.31;100.00;98457.17;2188668;81;21380;-59
2022/12/22 04:43:36;;;;;;;72.40;32.40;;;;;;;3.39;100.00;98452.56;2188712;81;21016;-58
2022/12/22 04:46:37;;;;;;;58.05;26.70;;;;;;;3.44;100.00;98449.78;2188649;81;21088;-59
2022/12/22 04:49:39;;;;;;;51.03;20.53;;;;;;;3.50;100.00;98453.89;2188918;81;21004;-58
2022/12/22 04:52:40;;;;;;;50.70;21.23;;;;;;;3.52;100.00;98458.56;2176936;81;21045;-59
2022/12/22 04:55:43;;;;;;;53.00;20.85;;;;;;;3.54;100.00;98455.47;2161434;82;21488;-59
2022/12/22 04:58:45;;;;;;;45.25;19.30;;;;;;;3.53;100.00;98449.88;2172455;81;20972;-58
2022/12/22 05:01:46;;;;;;;43.33;19.30;;;;;;;3.52;100.00;98452.94;2172637;82;21001;-58
2022/12/22 05:04:47;;;;;;;47.35;20.00;;;;;;;3.51;100.00;98442.16;2172355;81;21035;-58
2022/12/22 05:07:49;;;;;;;46.65;20.32;;;;;;;3.47;100.00;98440.13;2172251;82;21068;-58
2022/12/22 05:10:50;;;;;;;44.17;20.10;;;;;;;3.42;100.00;98431.70;2172205;82;21121;-58
2022/12/22 05:13:52;;;;;;;50.15;21.48;;;;;;;3.37;100.00;98424.53;2172101;81;21018;-58
2022/12/22 05:16:53;;;;;;;47.62;22.17;;;;;;;3.46;100.00;98433.27;2172106;81;21503;-58
2022/12/22 05:19:55;;;;;;;50.12;22.73;;;;;;;3.50;100.00;98430.55;2172067;82;21057;-58
2022/12/22 05:22:56;;;;;;;52.27;23.57;;;;;;;3.51;100.00;98432.25;2172663;82;21479;-59
2022/12/22 05:25:58;;;;;;;49.50;22.50;;;;;;;3.52;100.00;98433.92;2172177;81;21073;-58
2022/12/22 05:28:59;;;;;;;49.90;22.63;;;;;;;3.57;100.00;98426.82;2172296;81;21578;-58
2022/12/22 05:32:01;;;;;;;55.05;23.77;;;;;;;3.63;100.00;98416.20;2172380;81;22252;-58
2022/12/22 05:35:02;;;;;;;49.58;22.60;;;;;;;3.59;100.00;98413.33;2172113;81;21085;-58
2022/12/22 05:38:04;;;;;;;51.83;22.32;;;;;;;3.61;100.00;98421.91;2171722;81;20985;-58
2022/12/22 05:41:05;;;;;;;53.55;23.32;;;;;;;3.57;100.00;98417.28;2172269;81;21465;-58
2022/12/22 05:44:07;;;;;;;50.95;22.62;;;;;;;3.55;100.00;98419.10;2171905;82;21085;-58
2022/12/22 05:47:08;;;;;;;54.80;24.60;;;;;;;3.53;100.00;98418.77;2172050;82;21567;-58
2022/12/22 05:50:10;;;;;;;57.03;26.25;;;;;;;3.40;100.00;98420.98;2172261;81;21064;-58
2022/12/22 05:53:11;;;;;;;52.30;23.40;;;;;;;3.34;100.00;98421.23;2185112;81;21101;-58
2022/12/22 05:56:13;;;;;;;48.87;22.00;;;;;;;3.32;100.00;98420.42;2188724;81;21008;-58
2022/12/22 05:59:14;;;;;;;56.58;26.77;;;;;;;3.31;100.00;98429.13;2188636;81;21028;-58
2022/12/22 06:02:15;;;;;;;53.15;24.63;;;;;;;3.19;100.00;98435.59;2188854;81;21039;-58
2022/12/22 06:05:17;;;;;;;51.80;22.32;;;;;;;3.04;100.00;98435.72;2188257;81;21070;-58
2022/12/22 06:08:19;;;;;;;49.43;21.00;;;;;;;2.94;100.00;98439.95;2188961;81;21059;-58
2022/12/22 06:11:20;;;;;;;53.78;23.47;;;;;;;2.87;100.00;98429.84;2188564;81;21507;-58
2022/12/22 06:14:22;;;;;;;47.43;20.20;;;;;;;2.89;100.00;98436.67;2188233;81;21598;-58
2022/12/22 06:17:23;;;;;;;48.50;19.98;;;;;;;2.86;100.00;98433.33;2188752;81;21025;-58
2022/12/22 06:20:24;;;;;;;47.30;20.00;;;;;;;2.84;100.00;98433.84;2188638;81;21076;-58
2022/12/22 06:23:26;;;;;;;53.85;23.80;;;;;;;2.76;100.00;98434.96;2188717;81;20988;-58
2022/12/22 06:26:27;;;;;;;48.85;21.10;;;;;;;2.62;100.00;98428.12;2188596;81;21075;-58
2022/12/22 06:29:29;;;;;;;60.67;24.85;;;;;;;2.66;100.00;98428.84;2188739;81;21527;-58
2022/12/22 06:32:30;;;;;;;56.53;26.12;;;;;;;2.67;100.00;98425.38;2188602;81;21031;-58
2022/12/22 06:35:32;;;;;;;75.42;35.17;;;;;;;2.77;100.00;98406.88;2188771;81;21479;-58
2022/12/22 06:38:33;;;;;;;55.43;24.92;;;;;;;2.73;100.00;98401.83;2188617;81;21052;-58
2022/12/22 06:44:38;;;;;;;54.20;23.40;;;;;;;2.53;100.00;98460.37;2172278;81;21539;-57
2022/12/22 06:47:39;;;;;;;53.75;23.47;;;;;;;2.38;100.00;98460.42;2188950;81;21012;-58
2022/12/22 06:50:41;;;;;;;53.90;24.52;;;;;;;2.41;100.00;98448.69;2188819;81;21012;-58
2022/12/22 06:53:42;;;;;;;52.90;23.85;;;;;;;2.51;100.00;98457.42;2188757;81;21043;-58
2022/12/22 06:56:44;;;;;;;52.27;24.18;;;;;;;2.57;100.00;98439.08;2188931;81;21028;-59
2022/12/22 06:59:45;;;;;;;54.15;26.00;;;;;;;2.87;100.00;98441.03;2188836;81;20941;-58
2022/12/22 07:02:47;;;;;;;56.10;25.90;;;;;;;2.99;100.00;98446.25;2188703;81;21010;-58
2022/12/22 07:05:48;;;;;;;59.23;27.55;;;;;;;3.14;100.00;98440.95;2188661;81;21571;-58
2022/12/22 07:08:50;;;;;;;63.37;27.87;;;;;;;3.16;100.00;98442.19;2188640;81;21076;-58
2022/12/22 07:11:51;;;;;;;54.63;25.40;;;;;;;3.39;100.00;98431.81;2188743;81;21534;-58
2022/12/22 07:14:53;;;;;;;48.28;21.40;;;;;;;3.42;100.00;98430.40;2188957;81;20972;-58
2022/12/22 07:17:54;;;;;;;50.70;21.40;;;;;;;3.46;100.00;98426.79;2188762;81;20945;-58
2022/12/22 07:20:55;;;;;;;53.58;23.05;;;;;;;3.61;100.00;98431.82;2188898;81;20973;-58
2022/12/22 07:23:57;;;;;;;56.33;24.87;;;;;;;3.69;100.00;98421.14;2188707;81;21008;-58
2022/12/22 07:26:58;;;;;;;55.98;25.15;;;;;;;3.76;100.00;98412.20;2188830;81;20988;-58
2022/12/22 07:30:00;;;;;;;53.40;23.27;;;;;;;3.87;100.00;98403.17;2188737;81;20969;-58
2022/12/22 07:33:01;;;;;;;60.00;26.45;;;;;;;3.93;100.00;98395.13;2188984;81;21537;-58
2022/12/22 07:36:03;;;;;;;58.35;24.57;;;;;;;3.98;100.00;98393.20;2188756;81;21075;-58
2022/12/22 07:39:04;;;;;;;54.10;23.30;;;;;;;4.21;100.00;98403.93;2188732;81;21061;-58
2022/12/22 07:45:09;;;;;;;56.53;24.75;;;;;;;4.09;100.00;98429.08;2171976;81;20976;-58
2022/12/22 07:54:17;;;;;;;62.60;28.12;;;;;;;4.34;100.00;98438.02;2166073;81;20993;-58
2022/12/22 07:57:19;;;;;;;60.85;28.57;;;;;;;4.45;100.00;98416.34;2184845;81;20989;-58
2022/12/22 08:00:20;;;;;;;59.17;27.43;;;;;;;4.53;100.00;98416.47;2185075;81;20964;-58
2022/12/22 08:03:22;;;;;;;59.93;26.15;;;;;;;4.76;100.00;98411.56;2184597;81;21059;-58
2022/12/22 08:06:23;;;;;;;55.38;25.35;;;;;;;4.91;100.00;98418.66;2184636;81;21637;-59
2022/12/22 08:09:25;;;;;;;57.85;25.05;;;;;;;5.02;100.00;98415.13;2184689;81;21100;-58
2022/12/22 08:12:28;;;;;;;47.17;21.70;;;;;;;5.05;100.00;98405.53;2184691;81;21048;-58
2022/12/22 08:15:30;;;;;;;44.95;21.30;;;;;;;5.09;100.00;98410.51;2184590;81;21024;-59
2022/12/22 08:18:31;;;;;;;47.98;21.87;;;;;;;5.20;100.00;98404.80;2184980;81;21543;-59
2022/12/22 08:21:32;;;;;;;45.73;20.95;;;;;;;5.26;100.00;98393.28;2184693;81;22887;-58
2022/12/22 08:24:34;;;;;;;44.27;20.23;;;;;;;5.51;100.00;98394.30;2184364;81;21092;-58
2022/12/22 08:27:38;;;;;;;40.23;17.85;;;;;;;5.59;100.00;98391.31;2184860;81;21044;-58
2022/12/22 08:30:39;;;;;;;46.70;19.67;;;;;;;5.56;100.00;98389.73;2166141;81;21038;-59
2022/12/22 08:33:40;;;;;;;41.80;19.27;;;;;;;5.43;100.00;98380.36;2184846;81;21108;-58
2022/12/22 08:36:41;;;;;;;41.83;19.17;;;;;;;5.52;100.00;98386.41;2184927;81;21033;-58
2022/12/22 08:39:43;;;;;;;42.78;18.92;;;;;;;5.49;100.00;98381.83;2184810;81;21044;-58
2022/12/22 08:42:44;;;;;;;46.63;19.87;;;;;;;5.40;100.00;98387.45;2185042;81;20988;-59
2022/12/22 08:45:46;;;;;;;45.85;20.97;;;;;;;5.37;100.00;98377.59;2184568;81;21124;-58
2022/12/22 08:48:48;;;;;;;40.12;17.77;;;;;;;5.67;100.00;98375.72;2184849;81;21622;-58
2022/12/22 08:51:49;;;;;;;45.25;21.20;;;;;;;5.89;100.00;98370.80;2184769;81;21041;-59
2022/12/22 08:54:51;;;;;;;51.33;24.70;;;;;;;5.90;100.00;98381.14;2188669;81;21531;-58
2022/12/22 08:57:52;;;;;;;45.48;21.30;;;;;;;6.00;100.00;98383.31;2188708;81;21024;-58
2022/12/22 09:00:53;;;;;;;42.98;21.15;;;;;;;6.32;100.00;98374.34;2188708;81;21088;-58
2022/12/22 09:03:55;;;;;;;44.40;21.55;;;;;;;6.61;100.00;98365.48;2188898;81;20961;-58
2022/12/22 09:06:56;;;;;;;43.25;20.25;;;;;;;6.85;100.00;98359.00;2188665;81;21016;-59
2022/12/22 09:09:58;;;;;;;70.83;36.67;;;;;;;6.99;100.00;98356.11;2189159;81;21471;-58
2022/12/22 09:12:59;;;;;;;43.63;20.90;;;;;;;7.33;100.00;98346.45;2188667;81;21016;-58
2022/12/22 09:16:03;;;;;;;36.28;17.73;;;;;;;7.46;100.00;98341.75;2188611;81;21534;-58
2022/12/22 09:19:05;;;;;;;37.28;17.07;;;;;;;7.46;100.00;98339.62;2172318;81;21536;-58
2022/12/22 09:22:08;;;;;;;;;;;;;;;7.41;100.00;98333.36;2191388;81;20991;-58
2022/12/22 09:25:09;;;;;;;35.43;17.27;;;;;;;7.35;100.00;98338.89;2188738;81;20107;-58
2022/12/22 09:28:11;;;;;;;37.67;16.73;;;;;;;7.40;100.00;98338.19;2188911;81;21535;-59
2022/12/22 09:31:12;;;;;;;35.45;16.42;;;;;;;7.42;100.00;98336.33;2188832;81;21076;-58
2022/12/22 09:34:14;;;;;;;33.15;15.40;;;;;;;7.48;100.00;98326.48;2188619;81;21083;-59
2022/12/22 09:37:15;;;;;;;37.93;16.30;;;;;;;7.31;100.00;98323.03;2188876;81;21023;-59
2022/12/22 09:40:20;;;;;;;35.98;16.35;;;;;;;7.35;100.00;98321.94;2188317;81;21016;-58
2022/12/22 09:43:21;;;;;;;38.67;19.00;;;;;;;7.38;100.00;98323.06;2172072;81;21132;-58
2022/12/22 09:46:22;;;;;;;37.50;18.15;;;;;;;7.33;100.00;98305.55;2188982;81;20977;-58
2022/12/22 09:49:24;;;;;;;38.38;18.95;;;;;;;7.38;100.00;98300.06;2188697;81;21040;-58
2022/12/22 09:52:25;;;;;;;40.40;19.35;;;;;;;7.26;100.00;98292.47;2188884;81;21000;-58
2022/12/22 09:55:27;;;;;;;37.42;18.30;;;;;;;7.29;100.00;98287.90;2188668;81;21047;-58
2022/12/22 09:58:29;;;;;;;40.40;19.00;;;;;;;7.35;100.00;98285.41;2188913;81;21522;-58
2022/12/22 10:01:30;;;;;;;39.18;19.17;;;;;;;7.29;100.00;98261.81;2188873;81;21375;-58
2022/12/22 10:04:31;;;;;;;38.98;18.00;;;;;;;7.52;100.00;98270.58;2188600;81;20977;-58
2022/12/22 10:07:33;;;;;;;42.38;19.57;;;;;;;7.58;100.00;98254.08;2188883;81;21007;-58
2022/12/22 10:10:35;;;;;;;36.93;17.80;;;;;;;7.77;100.00;98257.80;2188894;81;20981;-59
2022/12/22 10:13:36;;;;;;;39.08;18.12;;;;;;;7.97;100.00;98265.76;2188866;81;21263;-59
2022/12/22 10:16:37;;;;;;;36.95;17.73;;;;;;;8.15;100.00;98257.75;2188576;81;21003;-58
2022/12/22 10:19:39;;;;;;;35.05;16.52;;;;;;;8.29;100.00;98251.70;2188650;81;21541;-58
2022/12/22 10:22:40;;;;;;;37.95;17.48;;;;;;;8.51;100.00;98255.17;2188718;81;20998;-58
2022/12/22 10:25:42;;;;;;;39.80;19.27;;;;;;;8.61;100.00;98244.51;2188573;81;21032;-58
2022/12/22 10:28:44;;;;;;;33.67;16.02;;;;;;;8.76;100.00;98240.56;2188943;81;21059;-58
2022/12/22 10:31:45;;;;;;;35.00;16.97;;;;;;;8.85;100.00;98237.38;2188612;81;20977;-58
2022/12/22 10:34:47;;;;;;;37.17;18.07;;;;;;;8.97;100.00;98226.60;2188694;81;21431;-59
2022/12/22 10:37:48;;;;;;;32.78;16.32;;;;;;;9.06;100.00;98223.38;2188777;81;21004;-59
2022/12/22 10:40:50;;;;;;;31.45;15.23;;;;;;;9.24;100.00;98215.27;2188791;81;21475;-58
2022/12/22 10:43:51;;;;;;;32.13;14.98;;;;;;;9.31;100.00;98217.86;2188889;81;21031;-59
2022/12/22 10:46:53;;;;;;;36.20;15.65;;;;;;;9.44;100.00;98213.52;2188707;81;21595;-59
2022/12/22 10:49:54;;;;;;;34.27;15.45;;;;;;;9.49;100.00;98210.59;2188933;81;20945;-59
2022/12/22 10:52:55;;;;;;;38.78;18.35;;;;;;;9.48;100.00;98200.59;2188672;81;21039;-58
2022/12/22 10:55:57;;;;;;;38.23;17.67;;;;;;;9.63;100.00;98203.96;2188927;81;21039;-59
2022/12/22 10:58:58;;;;;;;37.65;17.82;;;;;;;9.68;100.00;98208.44;2188797;81;21027;-59
2022/12/22 11:02:00;;;;;;;38.17;18.52;;;;;;;9.75;100.00;98202.29;2188766;81;20953;-58
2022/12/22 11:05:01;;;;;;;40.63;20.17;;;;;;;9.79;100.00;98199.01;2188943;81;21423;-58
2022/12/22 11:08:04;;;;;;;45.73;23.70;;;;;;;9.66;100.00;98188.52;2189025;81;20969;-58
2022/12/22 11:11:05;;;;;;;;;;;;;;;9.66;100.00;98178.05;2191536;81;20964;-59
2022/12/22 11:14:07;;;;;;;49.75;26.55;;;;;;;9.69;100.00;98178.66;2188691;81;20108;-59
2022/12/22 11:17:08;;;;;;;52.62;29.00;;;;;;;9.63;100.00;98178.26;2188759;81;21482;-59
2022/12/22 11:20:09;;;;;;;52.08;27.35;;;;;;;9.64;100.00;98177.30;2188880;81;20957;-58
2022/12/22 11:23:11;;;;;;;53.10;29.37;;;;;;;9.59;100.00;98176.78;2188612;81;20993;-59
2022/12/22 11:26:12;;;;;;;56.73;29.72;;;;;;;9.49;100.00;98172.63;2188842;81;20972;-59
2022/12/22 11:29:14;;;;;;;58.15;29.72;;;;;;;9.46;100.00;98165.81;2188860;81;21032;-59
2022/12/22 11:32:15;;;;;;;56.08;29.90;;;;;;;9.45;100.00;98162.85;2188686;81;21563;-59
2022/12/22 11:35:17;;;;;;;53.52;28.20;;;;;;;9.45;100.00;98143.22;2188702;81;21033;-58
2022/12/22 11:38:18;;;;;;;54.00;29.18;;;;;;;9.59;100.00;98145.37;2188744;81;21536;-59
2022/12/22 11:41:19;;;;;;;54.60;29.50;;;;;;;9.77;100.00;98141.95;2188687;81;21016;-59
2022/12/22 11:44:21;;;;;;;55.95;29.27;;;;;;;9.92;100.00;98144.83;2188585;81;21024;-59
2022/12/22 11:47:22;;;;;;;54.75;28.25;;;;;;;10.00;100.00;98127.29;2188956;81;20980;-59
2022/12/22 11:50:24;;;;;;;55.92;28.85;;;;;;;9.96;100.00;98129.75;2188750;81;20976;-58
2022/12/22 11:53:25;;;;;;;52.50;27.87;;;;;;;10.07;100.00;98125.91;2188714;81;20997;-59
2022/12/22 11:56:27;;;;;;;49.33;27.07;;;;;;;10.05;100.00;98127.30;2188942;81;21299;-59
2022/12/22 11:59:28;;;;;;;48.78;25.57;;;;;;;9.98;100.00;98128.67;2188857;81;20980;-59
2022/12/22 12:02:30;;;;;;;48.10;25.32;;;;;;;9.95;100.00;98123.66;2189077;81;21455;-59
2022/12/22 12:05:31;;;;;;;48.68;26.45;;;;;;;9.95;100.00;98120.21;2188441;81;21012;-59
2022/12/22 12:08:33;;;;;;;51.80;25.50;;;;;;;10.02;100.00;98114.91;2188824;81;21574;-59
2022/12/22 12:11:34;;;;;;;48.87;25.43;;;;;;;10.10;100.00;98105.19;2188483;81;21107;-58
2022/12/22 12:14:36;;;;;;;46.18;23.87;;;;;;;10.12;100.00;98093.66;2188624;81;21602;-59
2022/12/22 12:17:37;;;;;;;46.23;24.37;;;;;;;10.19;100.00;98094.89;2189262;81;21036;-59
2022/12/22 12:20:39;;;;;;;48.05;24.25;;;;;;;10.29;100.00;98095.08;2188681;81;21020;-58
2022/12/22 12:23:40;;;;;;;48.60;24.90;;;;;;;10.23;100.00;98091.11;2188996;81;21003;-59
2022/12/22 12:26:42;;;;;;;50.50;24.13;;;;;;;10.17;100.00;98093.32;2189057;81;20973;-59
2022/12/22 12:29:43;;;;;;;50.10;24.07;;;;;;;10.03;100.00;98075.50;2189354;81;21008;-59
2022/12/22 12:32:45;;;;;;;46.45;24.00;;;;;;;10.04;100.00;98085.48;2188802;81;21012;-58
2022/12/22 12:35:46;;;;;;;44.85;22.65;;;;;;;10.13;100.00;98080.92;2188747;81;21562;-59
2022/12/22 12:38:48;;;;;;;44.37;22.87;;;;;;;10.23;100.00;98083.25;2188944;81;21023;-59
2022/12/22 12:41:49;;;;;;;44.93;22.25;;;;;;;10.12;100.00;98082.34;2188649;81;21459;-58
2022/12/22 12:44:51;;;;;;;41.60;20.25;;;;;;;9.96;100.00;98078.19;2188777;81;20961;-58
2022/12/22 12:47:53;;;;;;;43.17;22.40;;;;;;;9.66;100.00;98070.69;2189173;81;21491;-59
2022/12/22 12:50:57;;;;;;;43.47;20.70;;;;;;;9.45;100.00;98075.61;2189058;81;21007;-59
2022/12/22 12:53:57;;;;;;;40.52;19.65;;;;;;;9.37;100.00;98072.22;2168986;82;21040;-58
2022/12/22 12:56:59;;;;;;;35.35;17.62;;;;;;;9.48;100.00;98074.09;2182113;82;21514;-59
2022/12/22 13:00:00;;;;;;;37.70;17.00;;;;;;;9.62;100.00;98071.84;2182321;82;20945;-58
2022/12/22 13:03:02;;;;;;;30.90;13.45;;;;;;;9.76;100.00;98070.41;2182062;82;21527;-59
2022/12/22 13:06:04;;;;;;;31.17;13.35;;;;;;;9.58;100.00;98065.14;2181732;82;21009;-59
2022/12/22 13:09:06;;;;;;;31.57;14.30;;;;;;;9.32;100.00;98067.75;2182455;82;21021;-58
2022/12/22 13:12:07;;;;;;;28.85;11.97;;;;;;;9.07;100.00;98072.52;2182200;82;20969;-58
2022/12/22 13:15:08;;;;;;;31.00;13.05;;;;;;;8.91;100.00;98071.39;2181938;82;20965;-59
2022/12/22 13:18:10;;;;;;;31.75;14.28;;;;;;;8.75;100.00;98063.23;2182201;82;21468;-58
2022/12/22 13:21:11;;;;;;;39.38;17.17;;;;;;;8.60;100.00;98059.83;2181943;82;20999;-58
2022/12/22 13:24:13;;;;;;;43.85;18.20;;;;;;;8.55;100.00;98062.38;2181895;82;21577;-58
2022/12/22 13:27:14;;;;;;;44.50;19.40;;;;;;;8.43;100.00;98057.45;2182077;82;20942;-59
2022/12/22 13:30:16;;;;;;;44.98;19.42;;;;;;;8.36;100.00;98062.70;2181736;82;21012;-58
2022/12/22 13:33:17;;;;;;;38.93;18.53;;;;;;;8.36;100.00;98049.63;2182521;82;21040;-58
2022/12/22 13:36:19;;;;;;;44.75;19.35;;;;;;;8.19;100.00;98058.09;2181898;82;20953;-58
2022/12/22 13:39:20;;;;;;;41.15;18.65;;;;;;;7.93;100.00;98056.66;2181941;82;20984;-58
2022/12/22 13:42:22;;;;;;;40.00;17.55;;;;;;;7.85;100.00;98058.06;2181966;82;21037;-59
2022/12/22 13:45:24;;;;;;;40.20;18.32;;;;;;;7.75;100.00;98061.23;2182149;82;20996;-58
2022/12/22 13:48:25;;;;;;;41.15;18.25;;;;;;;7.67;100.00;98063.49;2181953;82;20976;-59
2022/12/22 13:51:26;;;;;;;38.08;18.65;;;;;;;7.50;100.00;98056.69;2182218;82;21024;-58
2022/12/22 13:54:28;;;;;;;42.88;19.45;;;;;;;7.39;100.00;98052.58;2184796;81;20989;-59
2022/12/22 13:57:29;;;;;;;41.30;19.32;;;;;;;7.36;100.00;98050.98;2188712;81;21527;-58
2022/12/22 14:00:31;;;;;;;43.02;20.48;;;;;;;7.27;100.00;98045.86;2188610;81;20985;-58
2022/12/22 14:03:32;;;;;;;45.00;21.62;;;;;;;7.21;100.00;98051.90;2188467;81;21554;-58
2022/12/22 14:06:34;;;;;;;46.58;21.75;;;;;;;7.00;100.00;98047.03;2188842;81;21019;-58
2022/12/22 14:09:36;;;;;;;50.88;23.90;;;;;;;6.94;100.00;98045.62;2188777;81;21522;-58
2022/12/22 14:12:37;;;;;;;46.20;22.45;;;;;;;6.88;100.00;98043.83;2188809;81;21035;-58
2022/12/22 14:15:39;;;;;;;48.45;25.00;;;;;;;6.70;100.00;98033.55;2188769;81;21535;-58
2022/12/22 14:18:40;;;;;;;49.95;24.57;;;;;;;6.67;100.00;98032.42;2189045;81;20969;-58
2022/12/22 14:21:43;;;;;;;47.43;23.25;;;;;;;6.50;100.00;98024.74;2188786;81;20992;-58
2022/12/22 14:24:44;;;;;;;45.48;21.62;;;;;;;6.47;100.00;98029.66;2188675;81;21023;-58
2022/12/22 14:27:46;;;;;;;48.55;21.82;;;;;;;6.41;100.00;98033.92;2189069;81;21000;-58
2022/12/22 14:30:47;;;;;;;46.50;22.30;;;;;;;6.36;100.00;98033.33;2188927;81;20992;-58
2022/12/22 14:33:49;;;;;;;47.03;22.07;;;;;;;6.32;100.00;98026.61;2188974;81;21020;-58
2022/12/22 14:36:50;;;;;;;48.95;21.95;;;;;;;6.34;100.00;98018.27;2188920;81;21027;-58
2022/12/22 14:39:52;;;;;;;46.07;23.13;;;;;;;6.26;100.00;98021.76;2189087;81;20993;-58
2022/12/22 14:42:54;;;;;;;83.17;46.00;;;;;;;6.20;100.00;98027.67;2188673;81;21754;-58
2022/12/22 14:45:55;;;;;;;131.63;64.20;;;;;;;6.19;100.00;98022.55;2188870;81;20985;-58
2022/12/22 14:48:57;;;;;;;184.52;88.78;;;;;;;6.07;100.00;98021.00;2188790;81;21331;-59
2022/12/22 14:51:58;;;;;;;87.25;42.70;;;;;;;6.06;100.00;98014.14;2188938;81;21278;-59
2022/12/22 14:55:00;;;;;;;72.05;37.40;;;;;;;5.92;100.00;98004.06;2179441;81;21052;-58
2022/12/22 14:58:01;;;;;;;51.37;25.12;;;;;;;5.84;100.00;97999.29;2172433;81;20969;-59
2022/12/22 15:01:03;;;;;;;72.70;38.23;;;;;;;5.78;100.00;97996.56;2172022;82;21073;-58
2022/12/22 15:04:04;;;;;;;58.13;28.35;;;;;;;5.78;100.00;98002.23;2172304;81;21571;-58
2022/12/22 15:07:05;;;;;;;56.37;26.70;;;;;;;5.75;100.00;98003.23;2172143;82;20960;-59
2022/12/22 15:10:07;;;;;;;94.60;50.60;;;;;;;5.71;100.00;97999.95;2172134;81;21067;-58
2022/12/22 15:13:08;;;;;;;97.53;51.67;;;;;;;5.76;100.00;98006.23;2172610;82;21047;-58
2022/12/22 15:16:10;;;;;;;58.80;26.30;;;;;;;5.65;100.00;98019.80;2172187;81;20980;-58
2022/12/22 15:19:11;;;;;;;61.37;28.23;;;;;;;5.62;100.00;98014.77;2172318;82;21104;-58
2022/12/22 15:22:13;;;;;;;82.00;35.70;;;;;;;5.57;100.00;98010.26;2172026;81;21140;-58
2022/12/22 15:25:14;;;;;;;43.68;18.42;;;;;;;5.50;100.00;98008.47;2172135;81;21532;-58
2022/12/22 15:28:16;;;;;;;76.80;29.98;;;;;;;5.60;100.00;98007.96;2172146;81;21069;-58
2022/12/22 15:31:18;;;;;;;50.98;22.30;;;;;;;5.66;100.00;98000.67;2172504;82;21570;-58
2022/12/22 15:34:19;;;;;;;42.53;16.95;;;;;;;5.68;100.00;97984.50;2172102;81;21088;-58
2022/12/22 15:37:21;;;;;;;39.18;15.75;;;;;;;5.49;100.00;97975.56;2172175;81;21535;-58
2022/12/22 15:40:22;;;;;;;39.48;16.17;;;;;;;5.53;100.00;97968.42;2172167;81;21033;-58
2022/12/22 15:43:24;;;;;;;39.80;16.50;;;;;;;5.63;100.00;97977.43;2172276;81;21555;-58
2022/12/22 15:46:25;;;;;;;40.25;15.98;;;;;;;5.63;100.00;97977.43;2172306;81;21531;-58
2022/12/22 15:49:27;;;;;;;39.15;15.63;;;;;;;5.67;100.00;97974.19;2172167;81;21056;-58
2022/12/22 15:52:28;;;;;;;39.23;15.15;;;;;;;5.56;100.00;97969.58;2172355;81;21530;-59
2022/12/22 15:55:30;;;;;;;45.35;19.15;;;;;;;5.53;100.00;97961.48;2182346;81;21060;-58
2022/12/22 15:58:31;;;;;;;55.52;23.83;;;;;;;5.49;100.00;97969.06;2188665;81;21519;-58
2022/12/22 16:01:32;;;;;;;44.38;18.30;;;;;;;5.49;100.00;97966.46;2188920;81;20984;-59
2022/12/22 16:04:34;;;;;;;40.08;15.78;;;;;;;5.45;100.00;97961.04;2188667;81;21019;-58
2022/12/22 16:07:35;;;;;;;43.70;18.07;;;;;;;5.45;100.00;97962.81;2188844;81;21008;-58
2022/12/22 16:10:37;;;;;;;47.40;19.95;;;;;;;5.49;100.00;97962.56;2188702;81;20965;-58
2022/12/22 16:13:38;;;;;;;51.23;21.33;;;;;;;5.50;100.00;97959.05;2188871;81;20993;-58
2022/12/22 16:16:40;;;;;;;45.60;21.90;;;;;;;5.44;100.00;97956.75;2188377;81;21047;-59
2022/12/22 16:19:44;;;;;;;44.73;20.77;;;;;;;5.48;100.00;97949.17;2189064;81;21012;-58
2022/12/22 16:22:45;;;;;;;64.92;33.88;;;;;;;5.60;100.00;97942.92;2188788;81;21035;-58
2022/12/22 16:25:47;;;;;;;115.37;52.07;;;;;;;5.64;100.00;97958.75;2188988;81;21023;-58
2022/12/22 16:28:48;;;;;;;50.15;21.60;;;;;;;5.65;100.00;97939.62;2189040;81;22232;-58
2022/12/22 16:31:50;;;;;;;100.30;44.33;;;;;;;5.59;100.00;97936.89;2189026;81;21044;-58
2022/12/22 16:34:51;;;;;;;72.32;28.62;;;;;;;5.55;100.00;97967.42;2188621;81;22310;-58
2022/12/22 16:37:53;;;;;;;80.20;39.03;;;;;;;5.57;100.00;97970.41;2188692;81;21072;-58
2022/12/22 16:40:54;;;;;;;59.33;25.37;;;;;;;5.55;100.00;97971.32;2188792;81;21447;-58
2022/12/22 16:43:56;;;;;;;90.20;32.58;;;;;;;5.51;100.00;97978.08;2188381;81;21043;-59
2022/12/22 16:46:57;;;;;;;92.30;32.55;;;;;;;5.47;100.00;97982.59;2188661;81;21075;-58
2022/12/22 16:49:59;;;;;;;66.53;26.97;;;;;;;5.51;100.00;97978.91;2188458;81;21044;-58
2022/12/22 16:53:00;;;;;;;53.35;22.67;;;;;;;5.44;100.00;97981.46;2188652;81;21048;-58
2022/12/22 16:56:02;;;;;;;42.23;18.35;;;;;;;5.43;100.00;97965.94;2176503;81;21100;-59
2022/12/22 16:59:03;;;;;;;60.60;22.02;;;;;;;5.45;100.00;97974.05;2172086;81;21033;-58
2022/12/22 17:02:05;;;;;;;69.05;25.48;;;;;;;5.44;100.00;97966.33;2172168;81;21564;-58
2022/12/22 17:05:06;;;;;;;107.20;36.17;;;;;;;5.48;100.00;97973.05;2172050;81;21033;-58
2022/12/22 17:08:08;;;;;;;117.60;39.90;;;;;;;5.43;100.00;97968.55;2172290;81;21604;-58
2022/12/22 17:11:09;;;;;;;86.55;26.77;;;;;;;5.39;100.00;97965.28;2171875;81;21072;-58
2022/12/22 17:14:11;;;;;;;75.80;24.70;;;;;;;5.37;100.00;97960.16;2172267;81;21041;-58
2022/12/22 17:17:12;;;;;;;46.28;17.90;;;;;;;5.37;100.00;97956.27;2172168;82;21092;-59
2022/12/22 17:20:14;;;;;;;66.30;22.58;;;;;;;5.38;100.00;97957.09;2172062;81;21120;-59
2022/12/22 17:23:15;;;;;;;53.00;20.10;;;;;;;5.42;100.00;97939.58;2172565;81;21024;-58
2022/12/22 17:26:17;;;;;;;74.55;25.08;;;;;;;5.41;100.00;97954.80;2172056;81;21068;-58
2022/12/22 17:29:18;;;;;;;75.42;25.65;;;;;;;5.40;100.00;97956.53;2172060;81;21555;-58
2022/12/22 17:32:20;;;;;;;52.93;20.10;;;;;;;5.42;100.00;97946.91;2172038;81;21037;-58
2022/12/22 17:35:21;;;;;;;55.93;21.30;;;;;;;5.44;100.00;97948.95;2172257;82;21540;-58
2022/12/22 17:38:25;;;;;;;60.83;24.20;;;;;;;5.49;100.00;97950.86;2172003;81;21141;-58
2022/12/22 17:41:26;;;;;;;56.42;24.20;;;;;;;5.44;100.00;97948.95;2161804;82;20982;-58
2022/12/22 17:44:27;;;;;;;121.33;51.83;;;;;;;5.45;100.00;97947.20;2172193;82;21114;-58